Webcam

2022/12/08 14:50 EBBR 081450Z 35003KT 9999 -SHRA SCT020 BKN044 03/01 Q1008 NOSIG

Webcam

--- Refresh now ---